Latest Weather Observations for Scoresby

IDV60901

Issued at 6:51 pm EST Sunday 24 July 2016 (issued every 10 minutes, with the page automatically refreshed every 10 minutes)

About weather observations | Map of Melbourne area stations | Latest observations for Melbourne area | Other Formats
Station Details ID: 086104 Name: SCORESBY RESEARCH INSTITUTE Lat: -37.87 Lon: 145.26 Height: 80.0 m
Data from the previous 72 hours. | See also: Recent months at Scoresby
Date/Time
EST
Temp
°C
App
Temp
°C
Dew
Point
°C
Rel
Hum
%
Delta-T
°C
Wind Press
QNH
hPa
Press
MSL
hPa
Rain since
9am
mm
Dir  Spd
km/h
Gust
km/h
Spd
kts
Gust
kts
24/06:30pm 8.2 4.4 4.0 75 1.8 NNE 13 19 7 10 - - 0.0
24/06:00pm 8.2 4.8 4.0 75 1.8 NNE 11 17 6 9 - - 0.0
24/05:30pm 8.8 5.1 4.2 73 2.0 NNE 13 22 7 12 - - 0.0
24/05:00pm 9.2 5.4 3.8 69 2.4 NNE 13 22 7 12 - - 0.0
24/04:30pm 9.5 5.6 3.5 66 2.6 NNE 13 20 7 11 - - 0.0
24/04:00pm 10.0 6.1 3.5 64 2.8 NNE 13 24 7 13 - - 0.0
24/03:30pm 10.2 5.2 3.5 63 2.9 NNW 19 32 10 17 - - 0.0
24/03:00pm 10.7 5.9 2.8 58 3.4 N 17 32 9 17 - - 0.0
24/02:30pm 10.6 5.9 2.9 59 3.3 NNW 17 30 9 16 - - 0.0
24/02:00pm 10.2 5.1 3.3 62 3.0 NNE 19 37 10 20 - - 0.0
24/01:30pm 10.7 5.7 3.5 61 3.2 NNE 19 30 10 16 - - 0.0
24/01:00pm 10.7 5.7 3.5 61 3.2 N 19 33 10 18 - - 0.0
24/12:30pm 10.8 5.6 3.8 62 3.1 N 20 39 11 21 - - 0.0
24/12:00pm 10.7 6.0 3.0 59 3.4 N 17 33 9 18 - - 0.0
24/11:30am 10.2 5.5 3.3 62 3.0 N 17 37 9 20 - - 0.0
24/11:00am 9.3 4.0 3.1 65 2.7 NNW 20 43 11 23 - - 0.0
24/10:30am 8.9 3.7 2.7 65 2.6 N 19 32 10 17 - - 0.0
24/10:00am 8.5 4.1 2.9 68 2.4 NNE 15 20 8 11 - - 0.0
24/09:30am 7.6 3.5 2.5 70 2.1 NNE 13 24 7 13 - - 0.0
24/09:00am 6.8 3.1 2.1 72 1.9 NNE 11 19 6 10 - - 0.8
24/08:30am 5.9 2.5 1.8 75 1.7 NNE 9 13 5 7 - - 0.8
24/08:00am 4.7 1.8 1.6 80 1.2 N 6 9 3 5 - - 0.8
24/07:30am 4.8 1.4 1.7 80 1.2 NNE 9 13 5 7 - - 0.8
24/07:00am 4.8 1.8 1.7 80 1.2 NNE 7 13 4 7 - - 0.8
24/06:30am 4.1 0.6 1.5 83 1.0 NE 9 13 5 7 - - 0.8
24/06:00am 3.9 0.4 1.3 83 1.0 NNE 9 15 5 8 - - 0.8
24/05:30am 3.9 0.4 1.1 82 1.1 NE 9 17 5 9 - - 0.8
24/05:00am 3.9 0.8 1.1 82 1.1 NNE 7 13 4 7 - - 0.8
24/04:30am 4.0 0.9 1.2 82 1.1 NNE 7 11 4 6 - - 0.8
24/04:00am 4.4 1.3 1.4 81 1.2 NNE 7 11 4 6 - - 0.8
24/03:30am 4.5 1.4 1.4 80 1.2 NNE 7 11 4 6 - - 0.8
24/03:00am 4.9 1.8 1.6 79 1.3 NNE 7 15 4 8 - - 0.8
24/02:30am 5.0 2.0 1.7 79 1.3 NE 7 13 4 7 - - 0.8
24/02:00am 4.9 2.0 1.6 79 1.3 NNE 6 11 3 6 - - 0.8
24/01:30am 5.3 2.3 1.8 78 1.4 NNE 7 11 4 6 - - 0.8
24/01:00am 5.3 2.5 2.3 81 1.2 NNE 6 9 3 5 - - 0.8
24/12:30am 5.2 2.5 2.7 84 1.0 NNE 6 9 3 5 - - 0.8
24/12:00am 5.7 3.1 3.2 84 1.0 NNE 6 9 3 5 - - 0.8
 
Date/Time
EST
Temp
°C
App
Temp
°C
Dew
Point
°C
Rel
Hum
%
Delta-T
°C
Wind Press
QNH
hPa
Press
MSL
hPa
Rain since
9am
mm
Dir  Spd
km/h
Gust
km/h
Spd
kts
Gust
kts
23/11:30pm 6.7 4.5 3.3 79 1.4 N 4 7 2 4 - - 0.8
23/11:00pm 6.8 4.6 3.4 79 1.4 N 4 7 2 4 - - 0.8
23/10:30pm 6.8 4.3 3.6 80 1.4 NNW 6 9 3 5 - - 0.8
23/10:00pm 7.0 4.2 3.4 78 1.5 NW 7 17 4 9 - - 0.6
23/09:30pm 6.8 4.1 3.8 81 1.3 NNW 7 13 4 7 - - 0.6
23/09:00pm 6.7 4.2 3.7 81 1.3 N 6 11 3 6 - - 0.6
23/08:30pm 6.7 4.2 3.7 81 1.3 NNW 6 9 3 5 - - 0.6
23/08:00pm 6.9 3.8 3.7 80 1.4 NW 9 17 5 9 - - 0.6
23/07:30pm 7.0 4.6 4.1 82 1.3 NW 6 11 3 6 - - 0.6
23/07:00pm 6.7 4.3 4.2 84 1.1 NW 6 9 3 5 - - 0.6
23/06:30pm 6.8 3.5 4.5 85 1.0 WNW 11 19 6 10 - - 0.6
23/06:00pm 7.6 4.2 4.2 79 1.5 NW 11 19 6 10 - - 0.6
23/05:30pm 7.8 4.7 3.5 74 1.8 NW 9 19 5 10 - - 0.4
23/05:00pm 7.8 4.3 3.3 73 1.9 WNW 11 19 6 10 - - 0.4
23/04:30pm 7.9 2.8 3.0 71 2.1 WNW 19 32 10 17 - - 0.4
23/04:00pm 8.3 4.6 4.5 77 1.7 WNW 13 24 7 13 - - 0.4
23/03:30pm 7.1 1.3 4.2 82 1.3 WNW 24 39 13 21 - - 0.4
23/03:00pm 9.4 4.8 3.6 67 2.5 W 17 28 9 15 - - 0.0
23/02:30pm 9.7 4.4 1.8 58 3.3 W 19 35 10 19 - - 0.0
23/02:00pm 10.7 4.0 1.5 53 3.9 W 26 39 14 21 - - 0.0
23/01:30pm 9.8 4.2 1.2 55 3.6 W 20 37 11 20 - - 0.0
23/01:00pm 9.6 3.9 0.5 53 3.7 W 20 37 11 20 - - 0.0
23/12:30pm 9.6 4.6 1.3 56 3.4 W 17 28 9 15 - - 0.0
23/12:00pm 9.2 3.2 0.9 56 3.4 WNW 22 43 12 23 - - 0.0
23/11:30am 8.5 2.8 0.7 58 3.1 WNW 20 33 11 18 - - 0.0
23/11:00am 9.3 3.2 0.5 54 3.6 W 22 37 12 20 - - 0.0
23/10:30am 9.2 2.7 0.1 53 3.6 W 24 41 13 22 - - 0.0
23/10:00am 9.1 3.6 0.3 54 3.5 WNW 19 32 10 17 - - 0.0
23/09:30am 8.6 3.5 0.8 58 3.2 W 17 28 9 15 - - 0.0
23/09:00am 8.2 3.7 2.4 67 2.4 W 15 26 8 14 - - 9.2
23/08:30am 7.4 3.4 3.1 74 1.8 WNW 13 22 7 12 - - 9.2
23/08:00am 7.0 3.4 3.1 76 1.6 WNW 11 19 6 10 - - 9.2
23/07:30am 7.6 2.9 3.3 74 1.8 W 17 26 9 14 - - 9.2
23/07:00am 7.8 2.7 4.2 78 1.6 W 20 37 11 20 - - 9.2
23/06:30am 7.8 2.7 4.2 78 1.6 W 20 37 11 20 - - 9.2
23/06:00am 8.2 3.3 4.2 76 1.8 WNW 19 33 10 18 - - 9.2
23/05:30am 8.1 3.1 4.5 78 1.6 WNW 20 35 11 19 - - 9.2
23/05:00am 8.1 3.7 4.7 79 1.5 WNW 17 30 9 16 - - 9.2
23/04:30am 8.0 3.6 4.9 81 1.4 WNW 17 30 9 16 - - 9.2
23/04:00am 7.8 2.5 4.9 82 1.3 W 22 35 12 19 - - 9.2
23/03:30am 7.5 2.8 5.3 86 1.0 W 19 35 10 19 - - 9.0
23/03:02am 8.7 2.2 4.9 77 1.7 WNW 28 50 15 27 - - 8.8
23/03:00am 8.8 2.7 4.8 76 1.8 WNW 26 50 14 27 - - 8.8
23/02:59am 8.8 2.3 4.6 75 1.9 WNW 28 50 15 27 - - 8.8
23/02:30am 9.3 4.4 4.1 70 2.3 NW 19 41 10 22 - - 8.8
23/02:00am 9.6 5.1 4.2 69 2.4 NNW 17 32 9 17 - - 8.8
23/01:30am 9.2 4.9 5.2 76 1.8 NW 17 33 9 18 - - 8.8
23/01:00am 8.4 6.4 7.0 91 0.7 N 7 11 4 6 - - 8.8
23/12:30am 8.5 5.9 6.3 86 1.0 NW 9 24 5 13 - - 8.8
23/12:00am 8.2 4.4 5.8 85 1.1 NW 15 30 8 16 - - 8.2
 
Date/Time
EST
Temp
°C
App
Temp
°C
Dew
Point
°C
Rel
Hum
%
Delta-T
°C
Wind Press
QNH
hPa
Press
MSL
hPa
Rain since
9am
mm
Dir  Spd
km/h
Gust
km/h
Spd
kts
Gust
kts
22/11:30pm 9.6 7.7 7.5 87 1.0 NW 7 11 4 6 - - 6.0
22/11:00pm 10.3 7.8 8.2 87 1.0 NNW 11 19 6 10 - - 5.6
22/10:30pm 10.5 7.7 8.4 87 1.0 N 13 28 7 15 - - 5.0
22/10:00pm 10.2 9.2 8.8 91 0.7 N 4 9 2 5 - - 3.8
22/09:30pm 10.2 8.2 8.5 89 0.8 NNE 9 15 5 8 - - 3.4
22/09:00pm 10.3 8.6 8.4 88 0.9 NE 7 11 4 6 - - 3.4
22/08:30pm 10.3 9.1 8.1 86 1.1 N 4 9 2 5 - - 3.4
22/08:00pm 10.2 9.0 8.0 86 1.1 NNE 4 7 2 4 - - 3.2
22/07:30pm 9.7 8.1 8.1 90 0.8 NNE 6 9 3 5 - - 3.2
22/07:00pm 9.9 8.7 8.2 89 0.8 N 4 6 2 3 - - 3.2
22/06:30pm 10.8 9.2 8.6 86 1.1 NW 7 13 4 7 - - 3.2
22/06:00pm 10.8 9.7 8.4 85 1.2 NE 4 6 2 3 - - 2.2
22/05:30pm 11.0 9.5 8.4 84 1.3 NNE 6 7 3 4 - - 2.2
22/05:00pm 11.5 9.9 8.2 80 1.6 N 6 13 3 7 - - 2.2
22/04:30pm 11.4 9.7 8.3 81 1.5 NNW 7 15 4 8 - - 2.2
22/04:00pm 11.3 9.7 8.7 84 1.3 NNW 7 15 4 8 - - 2.0
22/03:30pm 11.2 8.5 8.8 85 1.2 NW 13 20 7 11 - - 1.6
22/03:00pm 11.0 6.2 8.8 86 1.1 W 24 46 13 25 - - 1.2
22/02:52pm 11.5 5.8 8.2 80 1.6 W 28 46 15 25 - - 0.6
22/02:30pm 16.1 11.8 7.8 58 4.2 NNW 20 32 11 17 - - 0.2
22/02:00pm 16.7 12.5 8.1 57 4.4 NNW 20 43 11 23 - - 0.2
22/01:30pm 15.7 12.3 9.1 65 3.4 NNW 17 30 9 16 - - 0.2
22/01:00pm 15.3 12.2 8.8 65 3.3 NNW 15 32 8 17 - - 0.2
22/12:30pm 15.2 12.2 9.1 67 3.1 NNW 15 32 8 17 - - 0.2
22/12:00pm 14.9 12.3 9.3 69 2.9 NNW 13 24 7 13 - - 0.2
22/11:30am 15.0 10.5 8.5 65 3.3 NW 22 39 12 21 - - 0.2
22/11:00am 15.3 12.3 9.2 67 3.1 NNW 15 35 8 19 - - 0.2
22/10:30am 15.4 12.0 10.4 72 2.6 NNW 19 35 10 19 - - 0.2
22/10:00am 15.7 12.8 10.9 73 2.6 NNW 17 37 9 20 - - 0.0
22/09:30am 15.6 13.3 11.8 78 2.1 N 15 30 8 16 - - 0.0
22/09:00am 15.2 14.4 12.9 86 1.3 N 9 17 5 9 - - 16.0
22/08:30am 15.6 14.1 13.1 85 1.4 N 13 24 7 13 - - 16.0
22/08:00am 15.6 14.8 14.1 91 0.9 N 11 22 6 12 - - 15.8
22/07:30am 15.5 14.4 14.4 93 0.6 N 13 20 7 11 - - 15.0
22/07:00am 15.4 13.6 14.4 94 0.6 N 17 33 9 18 - - 13.2
22/06:30am 15.4 14.2 13.9 91 0.8 N 13 22 7 12 - - 6.6
22/06:00am 15.5 13.9 14.0 91 0.8 N 15 30 8 16 - - 4.8
22/05:30am 16.1 13.5 13.8 86 1.3 N 20 39 11 21 - - 1.8
22/05:00am 15.8 13.5 13.1 84 1.5 N 17 30 9 16 - - 1.0
22/04:30am 15.7 11.6 12.8 83 1.6 NNE 26 41 14 22 - - 1.0
22/04:22am 16.3 11.8 12.5 78 2.1 NNE 28 46 15 25 - - 1.0
22/04:00am 16.3 12.3 11.9 75 2.4 NNE 24 41 13 22 - - 1.0
22/03:30am 16.1 12.2 10.8 71 2.8 NNE 22 43 12 23 - - 1.0
22/03:00am 15.8 11.1 10.6 71 2.8 NNE 26 43 14 23 - - 1.0
22/02:30am 15.8 11.1 10.6 71 2.8 NNE 26 46 14 25 - - 1.0
22/02:00am 15.8 11.5 10.6 71 2.8 NNE 24 43 13 23 - - 1.0
22/01:46am 15.8 10.7 10.6 71 2.8 NNE 28 46 15 25 - - 1.0
22/01:30am 15.7 11.3 10.5 71 2.8 NNE 24 43 13 23 - - 1.0
22/01:00am 15.8 11.8 10.6 71 2.8 N 22 35 12 19 - - 1.0
22/12:30am 15.6 12.1 10.2 70 2.8 NNE 19 33 10 18 - - 1.0
22/12:00am 15.4 11.7 10.2 71 2.7 NNE 20 41 11 22 - - 1.0
 
Date/Time
EST
Temp
°C
App
Temp
°C
Dew
Point
°C
Rel
Hum
%
Delta-T
°C
Wind Press
QNH
hPa
Press
MSL
hPa
Rain since
9am
mm
Dir  Spd
km/h
Gust
km/h
Spd
kts
Gust
kts
21/11:30pm 15.1 11.0 10.1 72 2.6 NNE 22 37 12 20 - - 1.0
21/11:00pm 15.1 11.0 10.1 72 2.6 NNE 22 35 12 19 - - 1.0
21/10:30pm 15.1 10.2 10.1 72 2.6 NNE 26 41 14 22 - - 1.0
21/10:00pm 14.8 11.1 10.0 73 2.5 NNE 20 33 11 18 - - 1.0
21/09:30pm 14.6 11.0 10.0 74 2.4 NNE 19 32 10 17 - - 1.0
21/09:00pm 14.5 10.9 9.9 74 2.4 NNE 19 33 10 18 - - 1.0
21/08:30pm 14.4 10.8 9.8 74 2.4 NNE 19 33 10 18 - - 1.0
21/08:00pm 14.1 10.8 9.7 75 2.3 NNE 17 28 9 15 - - 1.0
21/07:30pm 14.0 10.3 9.6 75 2.3 NNE 19 28 10 15 - - 1.0
21/07:00pm 13.8 10.9 9.8 77 2.1 NNE 15 22 8 12 - - 1.0

Latest Capital City Observations: Canberra | Sydney | Melbourne | Brisbane | Adelaide | Perth | Hobart | Darwin

Other Formats:

Comma delimited format used in spreadsheet applications
http://www.bom.gov.au/fwo/IDV60901/IDV60901.95867.axf

JavaScript Object Notation format (JSON) in row-major order
http://www.bom.gov.au/fwo/IDV60901/IDV60901.95867.json